Time;durP1;ratioP1;P1;durP2;ratioP2;P2;SDS_P1;SDS_P2;PMS_P1;PMS_P2;Temp;Humidity;BMP_temperature;BMP_pressure;BME280_temperature;BME280_humidity;BME280_pressure;Samples;Min_cycle;Max_cycle;Signal;HPM_P1;HPM_P2
2022/01/07 00:00:18;;;;;;;17.35;12.52;;;-1.80;99.90;;;;;;5089052;28;20666;-57
2022/01/07 00:02:52;;;;;;;15.93;10.60;;;-1.80;99.90;;;;;;5089241;28;20016;-57
2022/01/07 00:05:18;;;;;;;;;;;-1.80;99.90;;;;;;5073211;28;20689;-53
2022/01/07 00:07:44;;;;;;;16.92;10.30;;;-1.80;99.90;;;;;;5091365;28;19990;-55
2022/01/07 00:10:12;;;;;;;14.30;10.05;;;-1.80;99.90;;;;;;5090398;28;20060;-55
2022/01/07 00:12:37;;;;;;;12.30;9.45;;;-1.80;99.90;;;;;;5089285;28;20047;-56
2022/01/07 00:15:05;;;;;;;16.63;10.63;;;-1.80;99.90;;;;;;5089655;28;20320;-56
2022/01/07 00:17:31;;;;;;;15.32;10.85;;;-1.80;99.90;;;;;;5089996;28;20483;-55
2022/01/07 00:19:56;;;;;;;13.93;9.63;;;-1.80;99.90;;;;;;5091508;28;20055;-55
2022/01/07 00:22:23;;;;;;;14.98;10.85;;;-1.70;99.90;;;;;;5089699;28;20042;-55
2022/01/07 00:24:48;;;;;;;17.88;9.90;;;-1.70;99.90;;;;;;5089913;28;20024;-53
2022/01/07 00:27:14;;;;;;;17.65;10.35;;;-1.70;99.90;;;;;;5090376;28;20081;-55
2022/01/07 00:29:40;;;;;;;13.57;10.27;;;-1.60;99.90;;;;;;5091086;28;20032;-56
2022/01/07 00:32:06;;;;;;;15.07;10.20;;;-1.50;99.90;;;;;;5091372;28;20467;-57
2022/01/07 00:34:31;;;;;;;16.70;10.35;;;-1.50;99.90;;;;;;5090815;28;20027;-56
2022/01/07 00:36:57;;;;;;;10.85;9.05;;;-1.40;99.90;;;;;;5091140;28;20034;-55
2022/01/07 00:39:23;;;;;;;25.35;12.35;;;-1.30;99.90;;;;;;5090182;28;20027;-56
2022/01/07 00:41:49;;;;;;;22.52;12.63;;;-1.20;99.90;;;;;;5089673;28;20024;-53
2022/01/07 00:44:14;;;;;;;12.98;10.15;;;-1.10;99.90;;;;;;5090164;28;20032;-57
2022/01/07 00:46:40;;;;;;;14.93;10.63;;;-1.10;99.90;;;;;;5089902;28;20055;-53
2022/01/07 00:49:06;;;;;;;12.85;10.68;;;-1.00;99.90;;;;;;5091388;28;20054;-56
2022/01/07 00:51:58;;;;;;;16.98;11.15;;;-1.00;99.90;;;;;;5090863;28;20032;-57
2022/01/07 00:54:23;;;;;;;13.85;10.65;;;-1.00;99.90;;;;;;5090430;28;20052;-58
2022/01/07 00:56:49;;;;;;;27.10;14.00;;;-0.90;99.90;;;;;;5090949;28;20027;-54
2022/01/07 00:59:15;;;;;;;37.65;21.65;;;-1.00;99.90;;;;;;5091584;28;20020;-55
2022/01/07 01:01:40;;;;;;;36.33;20.17;;;-1.00;99.90;;;;;;5090984;28;20083;-53
2022/01/07 01:04:06;;;;;;;30.45;17.17;;;-1.10;99.90;;;;;;5091025;28;20028;-58
2022/01/07 01:06:32;;;;;;;31.27;17.17;;;-1.10;99.90;;;;;;5090796;28;20463;-56
2022/01/07 01:08:58;;;;;;;24.95;15.30;;;-1.10;99.90;;;;;;5091156;28;20039;-55
2022/01/07 01:11:24;;;;;;;20.05;14.10;;;-1.20;99.90;;;;;;5091015;28;20012;-54
2022/01/07 01:13:49;;;;;;;26.42;13.55;;;-1.20;99.90;;;;;;5090954;28;20024;-56
2022/01/07 01:16:15;;;;;;;19.00;12.02;;;-1.30;99.90;;;;;;5094507;28;20056;-55
2022/01/07 01:18:41;;;;;;;20.80;11.85;;;-1.40;99.90;;;;;;5094755;28;20039;-55
2022/01/07 01:21:06;;;;;;;16.00;10.85;;;-1.40;99.90;;;;;;5094865;28;20021;-54
2022/01/07 01:23:32;;;;;;;16.52;9.63;;;-1.50;99.90;;;;;;5092620;28;20121;-55
2022/01/07 01:25:58;;;;;;;82.28;31.90;;;-1.60;99.90;;;;;;5070459;28;20035;-55
2022/01/07 01:28:24;;;;;;;30.63;14.63;;;-1.60;99.90;;;;;;5080584;28;20024;-55
2022/01/07 01:30:50;;;;;;;21.23;13.70;;;-1.60;99.90;;;;;;5094476;28;20387;-56
2022/01/07 01:33:17;;;;;;;19.02;12.68;;;-1.60;99.90;;;;;;5074730;28;20040;-55
2022/01/07 01:35:42;;;;;;;23.88;12.30;;;-1.70;99.90;;;;;;5094152;28;20016;-56
2022/01/07 01:38:08;;;;;;;17.17;12.02;;;-1.70;99.90;;;;;;5094466;28;20466;-56
2022/01/07 01:40:34;;;;;;;21.80;11.25;;;-1.80;99.90;;;;;;5094482;28;20020;-57
2022/01/07 01:43:01;;;;;;;19.15;12.20;;;-1.90;99.90;;;;;;5094740;28;20081;-55
2022/01/07 01:45:27;;;;;;;12.07;10.65;;;-2.00;99.90;;;;;;5094253;28;20046;-55
2022/01/07 01:47:54;;;;;;;21.58;10.70;;;-2.00;99.90;;;;;;5094622;28;20031;-57
2022/01/07 01:50:21;;;;;;;15.65;10.10;;;-2.10;99.90;;;;;;5093775;28;20044;-55
2022/01/07 01:52:49;;;;;;;13.80;10.85;;;-2.20;99.90;;;;;;5094378;28;20406;-53
2022/01/07 01:55:17;;;;;;;14.68;10.60;;;-2.20;99.90;;;;;;5094417;28;20479;-57
2022/01/07 01:57:42;;;;;;;23.90;10.15;;;-2.30;99.90;;;;;;5094233;28;20042;-57
2022/01/07 02:00:09;;;;;;;16.20;12.07;;;-2.30;99.90;;;;;;5093512;28;20024;-53
2022/01/07 02:02:35;;;;;;;23.13;9.77;;;-2.40;99.90;;;;;;5092934;28;20016;-56
2022/01/07 02:05:01;;;;;;;14.82;11.70;;;-2.50;99.90;;;;;;5094252;28;20111;-56
2022/01/07 02:07:27;;;;;;;17.52;10.88;;;-2.50;99.90;;;;;;5093303;28;20024;-55
2022/01/07 02:09:54;;;;;;;13.73;9.90;;;-2.50;99.90;;;;;;5093974;28;20058;-52
2022/01/07 02:12:20;;;;;;;15.57;10.13;;;-2.60;99.90;;;;;;5067569;28;20626;-55
2022/01/07 02:14:53;;;;;;;17.05;10.95;;;-2.60;99.90;;;;;;5086793;28;20059;-56
2022/01/07 02:17:20;;;;;;;14.60;11.00;;;-2.60;99.90;;;;;;5092196;28;20074;-56
2022/01/07 02:19:46;;;;;;;20.70;10.13;;;-2.70;99.90;;;;;;5093549;28;20039;-56
2022/01/07 02:22:12;;;;;;;14.77;11.13;;;-2.70;99.90;;;;;;5093263;28;20012;-53
2022/01/07 02:24:37;;;;;;;17.45;10.80;;;-2.70;99.90;;;;;;5092381;28;20387;-55
2022/01/07 02:27:05;;;;;;;19.48;10.68;;;-2.70;99.90;;;;;;5090867;28;20035;-53
2022/01/07 02:29:31;;;;;;;21.27;10.55;;;-2.70;99.90;;;;;;5093021;28;20068;-52
2022/01/07 02:31:56;;;;;;;15.15;10.85;;;-2.80;99.90;;;;;;5075066;28;20362;-53
2022/01/07 02:34:22;;;;;;;16.20;10.93;;;-2.80;99.90;;;;;;5092696;28;20051;-57
2022/01/07 02:36:48;;;;;;;16.10;10.05;;;-2.90;99.90;;;;;;5064531;28;20032;-55
2022/01/07 02:39:14;;;;;;;17.50;10.40;;;-2.90;99.90;;;;;;5073654;28;20020;-54
2022/01/07 02:41:39;;;;;;;12.82;10.23;;;-2.90;99.90;;;;;;5080691;28;20371;-54
2022/01/07 02:44:05;;;;;;;14.48;9.98;;;-2.90;99.90;;;;;;5093619;28;20616;-52
2022/01/07 02:46:31;;;;;;;18.38;10.23;;;-3.00;99.90;;;;;;5092862;28;20092;-57
2022/01/07 02:48:57;;;;;;;16.00;10.75;;;-3.00;99.90;;;;;;5092922;28;20028;-55
2022/01/07 02:51:23;;;;;;;15.68;11.18;;;-3.00;99.90;;;;;;5092091;28;20062;-56
2022/01/07 02:53:49;;;;;;;13.77;10.70;;;-3.00;99.90;;;;;;5092489;28;20498;-56
2022/01/07 02:56:14;;;;;;;29.70;11.75;;;-3.00;99.90;;;;;;5062073;28;20052;-54
2022/01/07 02:58:40;;;;;;;21.98;10.55;;;-3.00;99.90;;;;;;5089974;28;20031;-57
2022/01/07 03:01:06;;;;;;;17.58;10.65;;;-3.00;99.90;;;;;;5091756;28;20125;-54
2022/01/07 03:03:31;;;;;;;19.00;11.15;;;-3.00;99.90;;;;;;5090898;28;20107;-55
2022/01/07 03:05:57;;;;;;;17.70;11.32;;;-3.00;99.90;;;;;;5090638;28;20085;-56
2022/01/07 03:08:23;;;;;;;17.50;10.23;;;-3.00;99.90;;;;;;5091768;28;20051;-54
2022/01/07 03:10:48;;;;;;;13.75;10.60;;;-3.00;99.90;;;;;;5091544;28;20432;-55
2022/01/07 03:13:14;;;;;;;18.65;11.65;;;-3.00;99.90;;;;;;5091420;28;20495;-55
2022/01/07 03:15:40;;;;;;;15.18;11.10;;;-3.00;99.90;;;;;;5090998;28;20032;-54
2022/01/07 03:18:07;;;;;;;25.40;14.70;;;-3.00;99.90;;;;;;5089430;28;20024;-55
2022/01/07 03:20:38;;;;;;;32.45;17.40;;;-2.80;99.90;;;;;;5090137;28;20012;-56
2022/01/07 03:23:09;;;;;;;30.33;16.00;;;-2.60;99.90;;;;;;5089503;28;20031;-56
2022/01/07 03:25:35;;;;;;;24.80;15.57;;;-2.30;99.90;;;;;;5090897;28;20016;-55
2022/01/07 03:28:02;;;;;;;25.10;14.13;;;-2.10;99.90;;;;;;5090675;28;20467;-57
2022/01/07 03:30:28;;;;;;;34.50;16.17;;;-2.00;99.90;;;;;;5089867;28;20032;-54
2022/01/07 03:32:54;;;;;;;29.05;16.27;;;-1.90;99.90;;;;;;5090317;28;20503;-55
2022/01/07 03:35:20;;;;;;;77.32;19.25;;;-1.90;99.90;;;;;;5089855;28;20036;-54
2022/01/07 03:37:48;;;;;;;87.43;20.60;;;-1.80;99.90;;;;;;5089499;28;20039;-56
2022/01/07 03:40:14;;;;;;;35.35;18.35;;;-1.80;99.90;;;;;;5089453;28;20024;-53
2022/01/07 03:42:40;;;;;;;48.55;19.70;;;-1.70;99.90;;;;;;5090072;28;20410;-52
2022/01/07 03:45:08;;;;;;;107.53;20.85;;;-1.60;99.90;;;;;;5090459;28;20091;-56
2022/01/07 03:47:34;;;;;;;102.38;19.10;;;-1.60;99.90;;;;;;5089775;28;20028;-54
2022/01/07 03:49:59;;;;;;;135.32;19.73;;;-1.60;99.90;;;;;;5091024;28;20379;-56
2022/01/07 03:52:25;;;;;;;220.63;21.33;;;-1.60;99.90;;;;;;5089323;28;20051;-55
2022/01/07 03:54:51;;;;;;;251.43;23.50;;;-1.60;99.90;;;;;;5090628;28;20055;-55
2022/01/07 03:57:19;;;;;;;331.95;25.58;;;-1.60;99.90;;;;;;5088948;28;20563;-56
2022/01/07 03:59:47;;;;;;;254.05;23.00;;;-1.50;99.90;;;;;;5089813;28;20028;-56
2022/01/07 04:02:13;;;;;;;32.15;16.25;;;-1.50;99.90;;;;;;5089598;28;20016;-53
2022/01/07 04:04:38;;;;;;;309.70;23.52;;;-1.50;99.90;;;;;;5089200;28;20089;-56
2022/01/07 04:07:04;;;;;;;280.83;23.13;;;-1.50;99.90;;;;;;5089186;28;20058;-58
2022/01/07 04:09:29;;;;;;;280.00;23.67;;;-1.50;99.90;;;;;;5089948;28;20020;-51
2022/01/07 04:11:58;;;;;;;161.50;21.27;;;-1.50;99.90;;;;;;5089668;28;20038;-55
2022/01/07 04:14:24;;;;;;;214.88;21.55;;;-1.50;99.90;;;;;;5090004;28;20115;-57
2022/01/07 04:16:49;;;;;;;67.82;18.00;;;-1.50;99.90;;;;;;5089931;28;20457;-53
2022/01/07 04:19:15;;;;;;;234.32;22.13;;;-1.50;99.90;;;;;;5089382;28;20026;-54
2022/01/07 04:21:40;;;;;;;111.82;20.13;;;-1.50;99.90;;;;;;5090127;28;20016;-54
2022/01/07 04:24:06;;;;;;;152.18;23.35;;;-1.50;99.90;;;;;;5089651;28;20024;-58
2022/01/07 04:26:32;;;;;;;110.22;19.95;;;-1.40;99.90;;;;;;5089233;28;20024;-53
2022/01/07 04:28:57;;;;;;;92.90;19.33;;;-1.40;99.90;;;;;;5088293;28;20118;-55
2022/01/07 04:31:24;;;;;;;117.93;20.85;;;-1.40;99.90;;;;;;5090364;28;20027;-55
2022/01/07 04:33:50;;;;;;;164.93;21.80;;;-1.30;99.90;;;;;;5089337;28;20035;-56
2022/01/07 04:36:17;;;;;;;155.38;20.73;;;-1.30;99.90;;;;;;5090034;28;20028;-54
2022/01/07 04:38:43;;;;;;;86.03;19.27;;;-1.30;99.90;;;;;;5089897;28;20063;-54
2022/01/07 04:41:09;;;;;;;147.40;21.52;;;-1.30;99.90;;;;;;5072265;28;20122;-57
2022/01/07 04:43:35;;;;;;;98.18;19.48;;;-1.30;99.90;;;;;;5071665;28;20154;-57
2022/01/07 04:46:00;;;;;;;127.25;19.95;;;-1.20;99.90;;;;;;5090385;28;20024;-58
2022/01/07 04:48:26;;;;;;;38.20;18.67;;;-1.20;99.90;;;;;;5090052;28;20055;-56
2022/01/07 04:50:52;;;;;;;88.90;19.88;;;-1.20;99.90;;;;;;5093226;28;20103;-54
2022/01/07 04:53:17;;;;;;;97.97;18.73;;;-1.20;99.90;;;;;;5094379;28;20038;-53
2022/01/07 04:55:44;;;;;;;241.23;22.45;;;-1.20;99.90;;;;;;5094069;28;20044;-54
2022/01/07 04:58:12;;;;;;;299.15;27.65;;;-1.20;99.90;;;;;;5094144;28;20031;-52
2022/01/07 05:00:41;;;;;;;156.85;23.50;;;-1.20;99.90;;;;;;5093979;28;20097;-57
2022/01/07 05:03:07;;;;;;;131.52;24.20;;;-1.20;99.90;;;;;;5094033;28;20110;-56
2022/01/07 05:05:33;;;;;;;73.53;21.63;;;-1.10;99.90;;;;;;5094024;28;20106;-56
2022/01/07 05:07:59;;;;;;;242.10;25.80;;;-1.10;99.90;;;;;;5093998;28;20030;-55
2022/01/07 05:10:25;;;;;;;171.75;23.52;;;-1.10;99.90;;;;;;5075466;28;20028;-56
2022/01/07 05:12:50;;;;;;;76.75;21.60;;;-1.10;99.90;;;;;;5093935;28;20024;-55
2022/01/07 05:15:17;;;;;;;129.25;21.65;;;-1.10;99.90;;;;;;5094017;28;20497;-55
2022/01/07 05:17:43;;;;;;;86.32;19.75;;;-1.10;99.90;;;;;;5093578;28;20115;-53
2022/01/07 05:20:10;;;;;;;59.63;19.00;;;-1.10;99.90;;;;;;5094103;28;20032;-56
2022/01/07 05:22:36;;;;;;;145.95;22.88;;;-1.10;99.90;;;;;;5093587;28;20356;-54
2022/01/07 05:25:04;;;;;;;98.78;20.77;;;-1.10;99.90;;;;;;5093851;28;20034;-57
2022/01/07 05:27:30;;;;;;;157.77;20.95;;;-1.10;99.90;;;;;;5093541;28;20089;-55
2022/01/07 05:29:56;;;;;;;156.02;22.40;;;-1.10;99.90;;;;;;5092904;28;20032;-55
2022/01/07 05:32:21;;;;;;;138.40;21.63;;;-1.10;99.90;;;;;;5093479;28;20124;-56
2022/01/07 05:34:47;;;;;;;72.97;18.88;;;-1.10;99.90;;;;;;5093388;28;20035;-53
2022/01/07 05:37:13;;;;;;;126.75;22.17;;;-1.10;99.90;;;;;;5093085;28;20032;-56
2022/01/07 05:39:38;;;;;;;206.05;24.85;;;-1.10;99.90;;;;;;5093312;28;20078;-56
2022/01/07 05:42:04;;;;;;;137.55;22.10;;;-1.20;99.90;;;;;;5093483;28;20013;-56
2022/01/07 05:44:30;;;;;;;144.98;22.92;;;-1.20;99.90;;;;;;5092794;28;20054;-53
2022/01/07 05:46:56;;;;;;;306.38;29.70;;;-1.30;99.90;;;;;;5093253;28;20016;-55
2022/01/07 05:49:21;;;;;;;273.15;28.02;;;-1.30;99.90;;;;;;5093192;28;20028;-57
2022/01/07 05:51:47;;;;;;;172.57;26.95;;;-1.30;99.90;;;;;;5093323;28;20025;-56
2022/01/07 05:54:13;;;;;;;107.78;25.60;;;-1.20;99.90;;;;;;5093248;28;20447;-57
2022/01/07 05:56:39;;;;;;;104.43;24.38;;;-1.20;99.90;;;;;;5093009;28;20020;-54
2022/01/07 05:59:05;;;;;;;147.98;27.40;;;-1.20;99.90;;;;;;5091602;28;20045;-57
2022/01/07 06:01:31;;;;;;;89.55;34.83;;;-1.20;99.90;;;;;;5073726;28;20043;-56
2022/01/07 06:03:57;;;;;;;98.30;38.13;;;-1.20;99.90;;;;;;5074582;28;20081;-56
2022/01/07 06:06:23;;;;;;;122.97;25.05;;;-1.30;99.90;;;;;;5092861;28;20387;-57
2022/01/07 06:08:49;;;;;;;144.50;25.48;;;-1.30;99.90;;;;;;5092673;28;20111;-54
2022/01/07 06:11:14;;;;;;;90.82;21.17;;;-1.30;99.90;;;;;;5092647;28;20077;-55
2022/01/07 06:13:40;;;;;;;69.30;23.17;;;-1.30;99.90;;;;;;5092219;28;20514;-57
2022/01/07 06:16:07;;;;;;;75.22;22.40;;;-1.30;99.90;;;;;;5092486;28;20031;-53
2022/01/07 06:18:33;;;;;;;115.70;22.95;;;-1.40;99.90;;;;;;5092398;28;20107;-54
2022/01/07 06:20:58;;;;;;;127.75;21.63;;;-1.40;99.90;;;;;;5074168;28;20102;-56
2022/01/07 06:23:24;;;;;;;164.95;23.33;;;-1.30;99.90;;;;;;5091805;28;20029;-57
2022/01/07 06:25:50;;;;;;;63.17;20.80;;;-1.40;99.90;;;;;;5091194;28;20335;-55
2022/01/07 06:28:19;;;;;;;52.30;19.83;;;-1.40;99.90;;;;;;5091948;28;20035;-55
2022/01/07 06:30:45;;;;;;;102.80;22.23;;;-1.40;99.90;;;;;;5092489;28;20037;-56
2022/01/07 06:33:13;;;;;;;79.57;22.08;;;-1.50;99.90;;;;;;5092211;28;20040;-57
2022/01/07 06:35:39;;;;;;;47.53;20.42;;;-1.50;99.90;;;;;;5091969;28;20027;-57
2022/01/07 06:38:05;;;;;;;39.13;19.65;;;-1.40;99.90;;;;;;5091235;28;20020;-56
2022/01/07 06:40:31;;;;;;;73.50;22.58;;;-1.30;99.90;;;;;;5090989;28;20017;-55
2022/01/07 06:42:56;;;;;;;109.50;27.30;;;-1.30;99.90;;;;;;5089834;28;20064;-55
2022/01/07 06:45:22;;;;;;;58.33;23.30;;;-1.20;99.90;;;;;;5090442;28;20521;-54
2022/01/07 06:47:48;;;;;;;107.50;26.65;;;-1.20;99.90;;;;;;5090615;28;20063;-56
2022/01/07 06:50:13;;;;;;;47.08;23.17;;;-1.20;99.90;;;;;;5091355;28;20544;-58
2022/01/07 06:52:40;;;;;;;30.15;18.80;;;-1.10;99.90;;;;;;5091251;28;20143;-57
2022/01/07 06:55:06;;;;;;;29.65;16.65;;;-1.10;99.90;;;;;;5091707;28;20040;-56
2022/01/07 06:57:32;;;;;;;26.90;16.02;;;-1.10;99.90;;;;;;5091569;28;20407;-54
2022/01/07 06:59:58;;;;;;;23.48;14.40;;;-1.20;99.90;;;;;;5073296;28;20020;-55
2022/01/07 07:02:23;;;;;;;26.63;15.60;;;-1.20;99.90;;;;;;5073409;28;20016;-56
2022/01/07 07:04:49;;;;;;;23.33;15.43;;;-1.30;99.90;;;;;;5073466;28;20494;-57
2022/01/07 07:07:15;;;;;;;22.23;14.73;;;-1.20;99.90;;;;;;5091867;28;20016;-57
2022/01/07 07:09:40;;;;;;;27.48;17.33;;;-1.20;99.90;;;;;;5090520;28;20311;-56
2022/01/07 07:12:07;;;;;;;27.13;14.60;;;-1.20;99.90;;;;;;5087246;28;20119;-57
2022/01/07 07:14:32;;;;;;;29.35;16.15;;;-1.10;99.90;;;;;;5091024;28;20368;-57
2022/01/07 07:16:58;;;;;;;87.85;42.92;;;-1.10;99.90;;;;;;5091745;28;20032;-56
2022/01/07 07:19:24;;;;;;;137.07;69.28;;;-1.10;99.90;;;;;;5090988;28;20093;-57
2022/01/07 07:21:50;;;;;;;127.15;68.32;;;-1.10;99.90;;;;;;5091473;28;20046;-57
2022/01/07 07:24:16;;;;;;;51.63;32.20;;;-1.10;99.90;;;;;;5091309;28;20382;-57
2022/01/07 07:26:42;;;;;;;27.77;18.38;;;-1.20;99.90;;;;;;5091251;28;20024;-57
2022/01/07 07:29:07;;;;;;;20.02;14.07;;;-1.20;99.90;;;;;;5091417;28;20367;-57
2022/01/07 07:31:38;;;;;;;61.33;38.70;;;-1.20;99.90;;;;;;5091088;28;20051;-57
2022/01/07 07:36:32;;;;;;;63.95;32.55;;;-1.00;99.90;;;;;;5090900;28;20039;-55
2022/01/07 07:39:02;;;;;;;384.30;179.65;;;-1.00;99.90;;;;;;5090653;28;20032;-54
2022/01/07 07:41:35;;;;;;;263.88;115.88;;;-1.10;99.90;;;;;;5090810;28;20038;-57
2022/01/07 07:44:01;;;;;;;92.53;45.75;;;-1.00;99.90;;;;;;5091033;28;20451;-56
2022/01/07 07:46:30;;;;;;;19.80;13.35;;;-1.00;99.90;;;;;;5090906;28;20554;-57
2022/01/07 07:48:58;;;;;;;16.80;12.77;;;-1.00;99.90;;;;;;5090697;28;20016;-56
2022/01/07 07:51:23;;;;;;;15.52;11.27;;;-0.90;99.90;;;;;;5090943;28;20056;-55
2022/01/07 07:53:49;;;;;;;17.80;12.95;;;-1.00;99.90;;;;;;5090563;28;20133;-56
2022/01/07 07:56:16;;;;;;;20.27;12.25;;;-1.00;99.90;;;;;;5072268;28;20048;-52
2022/01/07 07:58:42;;;;;;;21.98;13.35;;;-1.00;99.90;;;;;;5090438;28;20100;-56
2022/01/07 08:01:08;;;;;;;23.45;13.27;;;-1.00;99.90;;;;;;5090907;28;20020;-56
2022/01/07 08:03:34;;;;;;;21.30;13.60;;;-0.90;99.90;;;;;;5090200;28;20102;-58
2022/01/07 08:06:00;;;;;;;22.75;12.60;;;-0.90;99.90;;;;;;5090711;28;20107;-57
2022/01/07 08:08:26;;;;;;;18.80;12.50;;;-0.90;99.90;;;;;;5090575;28;20360;-56
2022/01/07 08:10:55;;;;;;;23.35;13.95;;;-0.90;99.90;;;;;;5090727;28;20039;-56
2022/01/07 08:15:59;;;;;;;19.95;12.68;;;-0.90;99.90;;;;;;5090532;28;20035;-56
2022/01/07 08:18:29;;;;;;;17.02;11.50;;;-0.80;99.90;;;;;;5090399;28;20016;-56
2022/01/07 08:21:15;;;;;;;23.08;12.10;;;-0.70;99.90;;;;;;5071863;28;20487;-56
2022/01/07 08:23:43;;;;;;;16.92;12.50;;;-0.70;99.90;;;;;;5089286;28;20438;-57
2022/01/07 08:26:11;;;;;;;17.98;12.80;;;-0.70;99.90;;;;;;5090285;28;20024;-57
2022/01/07 08:28:50;;;;;;;19.88;13.70;;;-0.80;99.90;;;;;;5090087;28;20429;-57
2022/01/07 08:36:34;;;;;;;20.08;11.63;;;-0.60;99.90;;;;;;5090096;28;20043;-57
2022/01/07 08:39:03;;;;;;;18.77;12.05;;;-0.50;99.90;;;;;;5089912;28;20020;-57
2022/01/07 08:41:30;;;;;;;18.27;11.52;;;-0.60;99.90;;;;;;5089537;28;20036;-54
2022/01/07 08:43:57;;;;;;;16.25;11.43;;;-0.60;99.90;;;;;;5090344;28;20039;-56
2022/01/07 08:46:23;;;;;;;16.00;11.00;;;-0.60;99.90;;;;;;5090087;28;20103;-57
2022/01/07 08:48:49;;;;;;;14.13;10.40;;;-0.60;99.90;;;;;;5089966;28;20158;-57
2022/01/07 08:51:14;;;;;;;15.07;10.30;;;-0.50;99.90;;;;;;5090262;28;20059;-58
2022/01/07 08:53:41;;;;;;;13.82;10.35;;;-0.50;99.90;;;;;;5089554;28;20070;-55
2022/01/07 08:56:07;;;;;;;16.92;10.60;;;-0.50;99.90;;;;;;5090164;28;20693;-56
2022/01/07 08:58:34;;;;;;;14.30;8.88;;;-0.30;99.90;;;;;;5089766;28;20432;-57
2022/01/07 09:01:00;;;;;;;12.68;8.80;;;-0.20;99.90;;;;;;5089793;28;20483;-57
2022/01/07 09:03:26;;;;;;;13.45;9.88;;;-0.10;99.90;;;;;;5089848;28;20032;-56
2022/01/07 09:05:52;;;;;;;13.23;10.02;;;-0.10;99.90;;;;;;5090052;28;20031;-55
2022/01/07 09:08:18;;;;;;;16.15;10.50;;;-0.20;99.90;;;;;;5064869;28;20032;-55
2022/01/07 09:10:44;;;;;;;20.20;10.68;;;-0.30;99.90;;;;;;5085694;28;20190;-58
2022/01/07 09:13:10;;;;;;;15.38;10.77;;;-0.40;99.90;;;;;;5090003;28;20397;-57
2022/01/07 09:15:37;;;;;;;13.32;9.63;;;-0.20;99.90;;;;;;5089482;28;20036;-56
2022/01/07 09:18:10;;;;;;;23.75;13.88;;;-0.30;99.90;;;;;;5089927;28;20113;-54
2022/01/07 09:20:41;;;;;;;23.70;13.77;;;-0.30;99.90;;;;;;5089182;28;20024;-56
2022/01/07 09:23:08;;;;;;;14.52;10.82;;;-0.50;99.90;;;;;;5089933;28;20020;-57
2022/01/07 09:25:34;;;;;;;20.48;11.10;;;-0.50;99.90;;;;;;5089952;28;20017;-54
2022/01/07 09:28:00;;;;;;;16.15;9.75;;;-0.30;99.90;;;;;;5089567;28;20466;-56
2022/01/07 09:30:27;;;;;;;15.07;10.30;;;-0.20;99.90;;;;;;5089538;28;20085;-57
2022/01/07 09:32:53;;;;;;;57.63;21.45;;;-0.30;99.90;;;;;;5089377;28;20383;-54
2022/01/07 09:35:19;;;;;;;15.50;10.20;;;-0.40;99.90;;;;;;5089970;28;20059;-54
2022/01/07 09:37:44;;;;;;;13.73;10.18;;;-0.30;99.90;;;;;;5093139;28;20024;-54
2022/01/07 09:40:11;;;;;;;13.43;9.77;;;-0.30;99.90;;;;;;5093245;28;20028;-54
2022/01/07 09:42:38;;;;;;;15.32;10.13;;;-0.40;99.90;;;;;;5093001;28;20528;-56
2022/01/07 09:45:04;;;;;;;17.45;10.20;;;-0.40;99.90;;;;;;5093556;28;20111;-57
2022/01/07 09:47:30;;;;;;;13.15;10.10;;;-0.30;99.90;;;;;;5092451;28;20120;-55
2022/01/07 09:49:56;;;;;;;16.50;10.90;;;-0.20;99.90;;;;;;5093292;28;20107;-56
2022/01/07 09:52:21;;;;;;;13.10;9.30;;;-0.10;99.90;;;;;;5093172;28;20024;-56
2022/01/07 09:54:48;;;;;;;14.15;10.30;;;-0.10;99.90;;;;;;5092804;28;20371;-57
2022/01/07 09:57:14;;;;;;;15.95;10.45;;;-0.10;99.90;;;;;;5093197;28;20564;-58
2022/01/07 09:59:40;;;;;;;20.20;16.58;;;-0.10;99.90;;;;;;5092454;28;20032;-56
2022/01/07 10:02:08;;;;;;;43.88;17.73;;;-0.30;99.90;;;;;;5092884;28;20024;-54
2022/01/07 10:04:40;;;;;;;38.75;16.65;;;-0.30;99.90;;;;;;5092774;28;20012;-53
2022/01/07 10:07:16;;;;;;;28.65;14.20;;;-0.20;99.90;;;;;;5093029;28;20009;-54
2022/01/07 10:09:55;;;;;;;18.95;12.07;;;0.00;99.90;;;;;;5092638;28;20021;-56
2022/01/07 10:12:21;;;;;;;14.63;9.63;;;-0.10;99.90;;;;;;5092969;28;20031;-55
2022/01/07 10:15:11;;;;;;;15.23;9.48;;;0.20;99.90;;;;;;5092057;28;20020;-55
2022/01/07 10:17:36;;;;;;;16.15;8.60;;;0.30;99.90;;;;;;5092071;28;20024;-54
2022/01/07 10:20:03;;;;;;;12.80;9.75;;;0.40;99.90;;;;;;5092688;28;20024;-56
2022/01/07 10:22:29;;;;;;;11.43;8.73;;;0.40;99.90;;;;;;5092553;28;20387;-56
2022/01/07 10:25:04;;;;;;;11.25;9.02;;;0.40;99.90;;;;;;5092410;28;20053;-53
2022/01/07 10:27:38;;;;;;;10.90;9.23;;;0.60;99.90;;;;;;5092570;28;20053;-57
2022/01/07 10:30:11;;;;;;;13.27;9.88;;;0.80;99.90;;;;;;5058002;28;20115;-55
2022/01/07 10:32:38;;;;;;;15.40;9.50;;;0.90;99.90;;;;;;5092091;28;20020;-54
2022/01/07 10:35:09;;;;;;;13.02;9.52;;;1.00;99.90;;;;;;5092202;28;20039;-55
2022/01/07 10:37:37;;;;;;;17.42;10.27;;;1.20;99.90;;;;;;5091719;28;20438;-56
2022/01/07 10:40:31;;;;;;;13.60;9.57;;;1.50;99.90;;;;;;5091607;28;20391;-57
2022/01/07 10:43:16;;;;;;;19.00;11.77;;;1.90;99.90;;;;;;5092123;28;20081;-57
2022/01/07 10:45:57;;;;;;;14.75;9.38;;;2.00;99.90;;;;;;5092059;28;20028;-57
2022/01/07 10:48:38;;;;;;;13.60;10.10;;;2.40;99.90;;;;;;5091106;28;20055;-57
2022/01/07 10:51:15;;;;;;;13.65;8.82;;;3.10;99.90;;;;;;5084294;28;20030;-53
2022/01/07 10:53:48;;;;;;;12.55;9.32;;;4.50;99.90;;;;;;5092108;28;20020;-55
2022/01/07 10:56:19;;;;;;;14.45;9.98;;;6.60;96.50;;;;;;5092092;28;20035;-57
2022/01/07 10:58:57;;;;;;;9.60;7.97;;;8.20;88.60;;;;;;5082544;28;20036;-56
2022/01/07 11:01:28;;;;;;;12.13;9.07;;;8.30;83.00;;;;;;5080287;28;22152;-57
2022/01/07 11:03:57;;;;;;;16.90;10.82;;;7.90;82.30;;;;;;5080125;28;20028;-58
2022/01/07 11:06:24;;;;;;;14.82;8.60;;;7.50;80.90;;;;;;5080704;28;20024;-58
2022/01/07 11:08:52;;;;;;;12.05;7.75;;;6.50;89.40;;;;;;5079430;28;20132;-57
2022/01/07 11:11:19;;;;;;;13.55;9.68;;;7.80;84.30;;;;;;5080284;28;20042;-58
2022/01/07 11:13:45;;;;;;;13.63;9.77;;;7.30;83.40;;;;;;5080284;28;20032;-58
2022/01/07 11:16:11;;;;;;;9.65;7.97;;;8.30;82.10;;;;;;5061326;28;20089;-57
2022/01/07 11:18:38;;;;;;;12.20;8.48;;;10.30;73.10;;;;;;5079518;28;20039;-58
2022/01/07 11:21:05;;;;;;;12.57;8.07;;;11.30;69.40;;;;;;5080377;28;20507;-58
2022/01/07 11:23:32;;;;;;;12.73;8.05;;;12.00;62.00;;;;;;5078789;28;20122;-59
2022/01/07 11:26:01;;;;;;;9.82;8.48;;;10.80;62.60;;;;;;5080001;28;20040;-59
2022/01/07 11:28:28;;;;;;;9.45;7.95;;;11.50;58.80;;;;;;5079713;28;20032;-59
2022/01/07 11:31:11;;;;;;;12.65;8.52;;;12.30;58.60;;;;;;5079926;28;20033;-59
2022/01/07 11:33:37;;;;;;;16.50;10.82;;;14.60;50.80;;;;;;5080020;28;20060;-59
2022/01/07 11:36:03;;;;;;;11.48;9.05;;;13.50;47.60;;;;;;5079980;28;20036;-59
2022/01/07 11:38:44;;;;;;;9.90;7.40;;;12.60;51.40;;;;;;5079399;28;20080;-57
2022/01/07 11:41:15;;;;;;;11.00;7.85;;;14.50;47.60;;;;;;5079546;28;20045;-56
2022/01/07 11:43:46;;;;;;;8.82;7.25;;;15.80;45.00;;;;;;5079201;28;20035;-56
2022/01/07 11:46:27;;;;;;;15.35;9.38;;;16.20;43.40;;;;;;5062183;28;20482;-59
2022/01/07 11:48:54;;;;;;;11.38;7.78;;;15.70;42.20;;;;;;5078158;28;20081;-58
2022/01/07 11:51:20;;;;;;;11.30;8.27;;;13.40;46.10;;;;;;5079629;28;20512;-59
2022/01/07 11:53:49;;;;;;;17.13;8.77;;;12.90;47.80;;;;;;5080912;28;20036;-59
2022/01/07 11:56:23;;;;;;;21.33;8.75;;;12.30;47.80;;;;;;5079877;28;20048;-59
2022/01/07 11:58:57;;;;;;;15.30;8.60;;;11.80;48.20;;;;;;5080342;28;20036;-59
2022/01/07 12:01:29;;;;;;;11.52;8.15;;;13.10;46.30;;;;;;5080387;28;20024;-59
2022/01/07 12:04:00;;;;;;;13.70;8.40;;;12.60;47.20;;;;;;5080207;28;20118;-59
2022/01/07 12:06:26;;;;;;;13.15;7.97;;;11.80;49.80;;;;;;5081314;28;20111;-59
2022/01/07 12:09:11;;;;;;;9.77;7.25;;;11.70;49.70;;;;;;5081142;28;20060;-59
2022/01/07 12:11:40;;;;;;;11.30;7.35;;;11.90;49.80;;;;;;5080750;28;20031;-59
2022/01/07 12:14:18;;;;;;;12.25;8.57;;;14.10;46.40;;;;;;5080606;28;20043;-59
2022/01/07 12:16:49;;;;;;;12.02;8.60;;;14.50;44.40;;;;;;5078825;28;20042;-58
2022/01/07 12:19:18;;;;;;;9.32;7.25;;;13.80;44.00;;;;;;5079562;28;20379;-58
2022/01/07 12:22:06;;;;;;;17.13;9.52;;;12.80;46.40;;;;;;5078944;28;20356;-58
2022/01/07 12:24:32;;;;;;;12.23;6.22;;;12.10;47.70;;;;;;5078580;28;20017;-58
2022/01/07 12:27:01;;;;;;;10.88;7.38;;;14.50;44.90;;;;;;5078404;28;20109;-58
2022/01/07 12:29:31;;;;;;;10.90;7.22;;;13.00;44.70;;;;;;5082724;28;20042;-58
2022/01/07 12:31:56;;;;;;;13.23;6.75;;;11.80;47.30;;;;;;5088570;28;20498;-58
2022/01/07 12:34:25;;;;;;;9.20;6.25;;;12.00;49.20;;;;;;5094620;28;20061;-58
2022/01/07 12:37:05;;;;;;;8.25;5.63;;;14.20;44.10;;;;;;5084338;28;20056;-58
2022/01/07 12:40:01;;;;;;;7.70;6.05;;;15.90;42.20;;;;;;5082830;28;20033;-58